Main page
METAR-TAF:

METAR-TAF

Airports :

Khon Kaen Airport

Khon Kaen, Thailand

latitude: 16-26N, longitude: 102-50E, elevation: 165 m

Current weather observation

The report was made 11 minutes ago, at 03:00 UTC
Wind 5 kt from the East, varying between Northeast and South/Southeast
Temperature 28°C
Humidity 48%
Pressure 1016 hPa
Visibility: 7000 m

METAR: VTUK 250300Z 09005KT 040V150 7000 NSC 28/16 Q1016 NOSIG

Time: 10:11 (03:11 UTC)

Forecast

The report was made 4 hours and 11 minutes ago, at 23:00 UTC
Forecast valid from 25 at 00 UTC to 25 at 24 UTC
Wind 4 kt from the East/Northeast
Visibility: 5000 m
mist
Becoming
from 25 at 04 UTC to 25 at 06 UTC
Visibility: 9000 m
Becoming
from 25 at 21 UTC to 25 at 23 UTC
Visibility: 5000 m
mist

TAF: VTUK 242300Z 2500/2524 06004KT 5000 BR NSC BECMG 2504/2506 9000 NSW BECMG 2521/2523 5000 BR

Weather observations and forecasts of more than 4000 airports (METAR and TAF reports).

The available stations are represented by yellow and red dots on the map.

Hover mouse over dot to see the name of the station.

Then click to see weather observations and forecasts.

To change the map : click on the green buttons with a black cross to zoom in, on the green button with a dash to zoom out, or on the green arrows for adjacent maps.


METAR-TAF: